Portada
METAR-TAF:

METAR-TAF

Aeropuertos :

LaGrange-Callaway Airport

Lagrange, Georgia, Estados Unidos

latitud: 33-00-32N, longitud: 085-04-21W, altitud: 211 m

Observación

El informe se hizo hace 20 minutos, a las 05:15 UTC
Viento calma
Temperatura 24°C
Humedad 100%
Presión 1015 hPa
Visibilidad: 16.1 km
Nubes dispersas a una altura de 1100 ft
Nubes dispersas a una altura de 2500 ft
Nubes dispersas a una altura de 3200 ft

METAR: KLGC 080515Z AUTO 00000KT 10SM SCT011 SCT025 SCT032 24/24 A2997 RMK AO2 T02430237 PWINO

Hora: 01:35 (05:35 UTC)


TAF: falta

Observaciones y pronósticos meteorológicos de más de 4000 aeropuertos (mensajes METAR y TAF).

Los puntos amarillos y rojos representan las estaciones disponibles.

Ponga el ratón en el punto deseado para ver el nombre de la estación.

Haga clic para ver las observaciones y los pronósticos meteorológicos.

Para cambiar el mapa : haga clic en los botones verdes con una cruz de color negro para hacer un zoom, en el botón verde con un guión para alejar o en las flechas verdes para mapas adyacentes.


METAR-TAF: